Time;durP1;ratioP1;P1;durP2;ratioP2;P2;SDS_P1;SDS_P2;PMS_P1;PMS_P2;Temp;Humidity;BMP_temperature;BMP_pressure;BME280_temperature;BME280_humidity;BME280_pressure;Samples;Min_cycle;Max_cycle;Signal;HPM_P1;HPM_P2
2022/07/04 00:00:45;;;;;;;5.80;5.20;;;13.10;99.90;;;;;;5081577;28;20075;-73
2022/07/04 00:03:11;;;;;;;5.18;4.50;;;13.20;99.90;;;;;;5064866;28;20520;-73
2022/07/04 00:05:36;;;;;;;14.65;7.55;;;13.20;99.90;;;;;;5085710;28;20155;-73
2022/07/04 00:08:03;;;;;;;12.60;9.05;;;13.20;99.90;;;;;;5077699;28;20071;-73
2022/07/04 00:10:29;;;;;;;42.60;13.27;;;13.10;99.90;;;;;;5078759;28;20039;-73
2022/07/04 00:12:55;;;;;;;10.95;9.85;;;13.00;99.90;;;;;;5098385;28;20048;-73
2022/07/04 00:15:21;;;;;;;11.25;7.97;;;13.00;99.90;;;;;;5099972;28;20096;-73
2022/07/04 00:17:46;;;;;;;9.07;6.95;;;12.90;99.90;;;;;;5089910;28;20134;-73
2022/07/04 00:20:12;;;;;;;10.52;9.52;;;12.90;99.90;;;;;;5090396;28;20113;-73
2022/07/04 00:22:38;;;;;;;14.52;10.95;;;12.80;99.90;;;;;;5073870;28;20448;-73
2022/07/04 00:25:05;;;;;;;12.02;7.55;;;12.80;99.90;;;;;;5063097;28;20050;-73
2022/07/04 00:27:31;;;;;;;8.35;7.57;;;12.70;99.90;;;;;;5079413;28;20036;-73
2022/07/04 00:29:56;;;;;;;7.80;7.10;;;12.70;99.90;;;;;;5098813;28;20100;-73
2022/07/04 00:32:22;;;;;;;7.03;6.32;;;12.70;99.90;;;;;;5082593;28;20494;-73
2022/07/04 00:34:48;;;;;;;5.82;5.32;;;12.70;99.90;;;;;;5098928;28;20101;-73
2022/07/04 00:37:14;;;;;;;5.70;5.20;;;12.80;99.90;;;;;;5082358;28;20141;-73
2022/07/04 00:39:40;;;;;;;16.20;9.63;;;12.80;99.90;;;;;;5080942;28;20538;-73
2022/07/04 00:42:06;;;;;;;7.28;6.57;;;12.80;99.90;;;;;;5077527;28;20044;-73
2022/07/04 00:44:36;;;;;;;18.95;15.23;;;12.80;99.90;;;;;;5095209;28;20114;-73
2022/07/04 00:47:03;;;;;;;13.20;11.55;;;12.80;99.90;;;;;;5076550;28;20081;-73
2022/07/04 00:49:29;;;;;;;34.78;16.00;;;12.80;99.90;;;;;;5096464;28;20201;-73
2022/07/04 00:51:55;;;;;;;8.07;7.28;;;12.80;99.90;;;;;;5075431;28;20135;-73
2022/07/04 00:54:26;;;;;;;6.10;5.60;;;12.80;99.90;;;;;;5079949;28;20040;-73
2022/07/04 00:56:53;;;;;;;7.00;6.32;;;12.80;99.90;;;;;;5082559;27;20086;-73
2022/07/04 00:59:19;;;;;;;6.95;6.35;;;12.80;99.90;;;;;;5098502;28;20894;-74
2022/07/04 01:01:45;;;;;;;13.38;12.07;;;12.80;99.90;;;;;;5100040;27;20060;-73
2022/07/04 01:04:11;;;;;;;14.57;11.73;;;12.80;99.90;;;;;;5096650;28;20080;-73
2022/07/04 01:06:37;;;;;;;15.40;12.77;;;12.80;99.90;;;;;;5080382;28;20371;-74
2022/07/04 01:09:05;;;;;;;10.15;7.85;;;12.70;99.90;;;;;;5095420;28;20478;-73
2022/07/04 01:11:30;;;;;;;16.42;13.20;;;12.70;99.90;;;;;;5080783;28;20039;-73
2022/07/04 01:13:57;;;;;;;8.38;7.50;;;12.60;99.90;;;;;;5065574;28;20529;-73
2022/07/04 01:16:25;;;;;;;7.53;6.82;;;12.60;99.90;;;;;;5077870;28;20032;-73
2022/07/04 01:18:54;;;;;;;8.73;7.82;;;12.60;99.90;;;;;;5098465;27;20062;-73
2022/07/04 01:21:20;;;;;;;8.27;7.22;;;12.60;99.90;;;;;;5097640;27;20446;-73
2022/07/04 01:23:46;;;;;;;11.95;10.75;;;12.60;99.90;;;;;;5082237;28;20052;-73
2022/07/04 01:26:12;;;;;;;11.75;10.55;;;12.60;99.90;;;;;;5061561;28;20849;-73
2022/07/04 01:28:43;;;;;;;8.63;7.82;;;12.50;99.90;;;;;;5078037;28;20082;-73
2022/07/04 01:31:09;;;;;;;9.68;8.77;;;12.50;99.90;;;;;;5077784;28;20094;-73
2022/07/04 01:33:34;;;;;;;10.48;9.45;;;12.50;99.90;;;;;;5080669;28;20100;-73
2022/07/04 01:36:00;;;;;;;11.27;10.20;;;12.60;99.90;;;;;;5066618;28;20516;-73
2022/07/04 01:38:26;;;;;;;9.15;8.30;;;12.60;99.90;;;;;;5063027;28;20043;-73
2022/07/04 01:40:52;;;;;;;9.85;9.05;;;12.60;99.90;;;;;;5100485;28;20056;-74
2022/07/04 01:43:18;;;;;;;27.15;17.85;;;12.70;99.90;;;;;;5079053;28;20123;-73
2022/07/04 01:45:44;;;;;;;8.23;7.53;;;12.60;99.90;;;;;;5078256;28;20039;-74
2022/07/04 01:48:12;;;;;;;10.98;9.65;;;12.60;99.90;;;;;;5079884;28;20040;-74
2022/07/04 01:50:38;;;;;;;11.00;9.88;;;12.60;99.90;;;;;;5080849;28;20036;-73
2022/07/04 01:53:04;;;;;;;8.82;8.02;;;12.50;99.90;;;;;;5065579;28;20071;-73
2022/07/04 01:55:30;;;;;;;10.27;9.27;;;12.50;99.90;;;;;;5096765;28;20594;-73
2022/07/04 01:57:56;;;;;;;10.30;9.30;;;12.50;99.90;;;;;;5098077;27;20043;-74
2022/07/04 02:03:07;;;;;;;9.90;8.90;;;12.40;99.90;;;;;;5097566;27;20887;-73
2022/07/04 02:05:33;;;;;;;10.52;9.45;;;12.40;99.90;;;;;;5068769;28;20031;-73
2022/07/04 02:07:59;;;;;;;9.55;8.52;;;12.50;99.90;;;;;;5099811;27;20089;-73
2022/07/04 02:10:25;;;;;;;8.90;8.07;;;12.50;99.90;;;;;;5064049;28;20051;-73
2022/07/04 02:13:03;;;;;;;8.02;7.32;;;12.50;99.90;;;;;;5081304;28;20044;-73
2022/07/04 02:15:29;;;;;;;9.25;8.45;;;12.50;99.90;;;;;;5098571;27;20040;-73
2022/07/04 02:17:55;;;;;;;7.75;6.90;;;12.50;99.90;;;;;;5079549;28;20043;-73
2022/07/04 02:20:21;;;;;;;8.18;6.63;;;12.40;99.90;;;;;;5082865;28;20043;-73
2022/07/04 02:22:50;;;;;;;7.60;6.90;;;12.40;99.90;;;;;;5065637;28;20044;-73
2022/07/04 02:25:16;;;;;;;7.55;6.18;;;12.40;99.90;;;;;;5096225;28;20035;-73
2022/07/04 02:27:42;;;;;;;6.15;5.45;;;12.40;99.90;;;;;;5078394;28;20469;-73
2022/07/04 02:30:09;;;;;;;7.15;6.45;;;12.40;99.90;;;;;;5072934;28;20138;-73
2022/07/04 02:32:35;;;;;;;8.82;8.07;;;12.30;99.90;;;;;;5062979;28;20059;-73
2022/07/04 02:35:02;;;;;;;10.10;9.20;;;12.30;99.90;;;;;;5074824;28;20043;-73
2022/07/04 02:37:29;;;;;;;9.95;9.05;;;12.30;99.90;;;;;;5095378;28;20042;-73
2022/07/04 02:39:55;;;;;;;10.07;9.18;;;12.20;99.90;;;;;;5078349;28;20077;-73
2022/07/04 02:42:20;;;;;;;11.38;9.68;;;12.20;99.90;;;;;;5095336;28;20044;-73
2022/07/04 02:44:47;;;;;;;7.55;6.85;;;12.20;99.90;;;;;;5112449;27;20063;-73
2022/07/04 02:47:13;;;;;;;9.15;7.28;;;12.30;99.90;;;;;;5064692;28;20135;-73
2022/07/04 02:49:39;;;;;;;6.65;5.95;;;12.20;99.90;;;;;;5093221;28;20126;-73
2022/07/04 02:52:05;;;;;;;7.90;7.15;;;12.20;99.90;;;;;;5095227;28;20110;-72
2022/07/04 02:54:31;;;;;;;8.32;7.53;;;12.20;99.90;;;;;;5078894;28;20485;-73
2022/07/04 02:56:57;;;;;;;6.97;6.28;;;12.20;99.90;;;;;;5063238;28;20337;-73
2022/07/04 02:59:23;;;;;;;8.55;7.38;;;12.10;99.90;;;;;;5094642;28;20044;-73
2022/07/04 03:01:48;;;;;;;8.85;8.05;;;12.10;99.90;;;;;;5099550;27;20062;-73
2022/07/04 03:04:14;;;;;;;8.63;7.88;;;12.00;99.90;;;;;;5074906;28;20511;-73
2022/07/04 03:06:40;;;;;;;9.65;8.75;;;12.10;99.90;;;;;;5059802;28;20047;-73
2022/07/04 03:09:06;;;;;;;8.52;7.80;;;12.10;99.90;;;;;;5081873;28;20077;-73
2022/07/04 03:11:32;;;;;;;7.90;7.20;;;12.10;99.90;;;;;;5078671;28;20078;-73
2022/07/04 03:13:58;;;;;;;9.10;6.72;;;12.00;99.90;;;;;;5079067;28;20529;-73
2022/07/04 03:16:24;;;;;;;7.65;6.97;;;12.00;99.90;;;;;;5093734;28;20032;-73
2022/07/04 03:18:50;;;;;;;7.78;7.07;;;11.90;99.90;;;;;;5067172;28;20066;-73
2022/07/04 03:21:16;;;;;;;9.43;8.63;;;12.00;99.90;;;;;;5066211;28;20067;-73
2022/07/04 03:23:42;;;;;;;8.13;7.38;;;11.90;99.90;;;;;;5082498;28;20112;-73
2022/07/04 03:26:07;;;;;;;9.63;8.73;;;12.00;99.90;;;;;;5097307;28;20047;-73
2022/07/04 03:28:33;;;;;;;8.70;7.88;;;11.90;99.90;;;;;;5065215;28;20048;-73
2022/07/04 03:30:59;;;;;;;10.10;9.15;;;12.00;99.90;;;;;;5062452;28;20047;-73
2022/07/04 03:33:25;;;;;;;10.73;9.63;;;11.90;99.90;;;;;;5099167;27;20096;-73
2022/07/04 03:35:51;;;;;;;12.57;11.35;;;11.90;99.90;;;;;;5082941;28;20071;-73
2022/07/04 03:38:19;;;;;;;11.07;10.02;;;12.00;99.90;;;;;;5078709;28;20052;-73
2022/07/04 03:40:45;;;;;;;10.10;9.18;;;11.90;99.90;;;;;;5081483;28;20449;-73
2022/07/04 03:43:11;;;;;;;11.38;10.27;;;11.90;99.90;;;;;;5083904;28;20036;-73
2022/07/04 03:45:36;;;;;;;11.10;10.10;;;11.90;99.90;;;;;;5085033;28;20129;-73
2022/07/04 03:48:03;;;;;;;10.63;9.73;;;11.80;99.90;;;;;;5078810;28;20317;-73
2022/07/04 03:50:29;;;;;;;9.80;8.90;;;11.90;99.90;;;;;;5067678;28;20039;-73
2022/07/04 03:52:55;;;;;;;12.52;11.40;;;11.90;99.90;;;;;;5080098;28;20079;-73
2022/07/04 03:55:21;;;;;;;11.27;9.30;;;11.90;99.90;;;;;;5084288;28;20066;-73
2022/07/04 03:57:46;;;;;;;11.88;10.75;;;11.90;99.90;;;;;;5081188;28;20043;-73
2022/07/04 04:00:13;;;;;;;12.07;10.80;;;12.00;99.90;;;;;;5067628;28;20292;-73
2022/07/04 04:02:39;;;;;;;12.45;11.32;;;12.00;99.90;;;;;;5076982;28;20554;-73
2022/07/04 04:07:50;;;;;;;10.60;9.60;;;12.00;99.90;;;;;;5099795;28;20520;-73
2022/07/04 04:10:16;;;;;;;11.15;10.20;;;12.10;99.90;;;;;;5093491;28;20052;-73
2022/07/04 04:12:41;;;;;;;12.43;11.25;;;12.10;99.90;;;;;;5078251;28;20105;-73
2022/07/04 04:15:08;;;;;;;13.65;12.32;;;12.10;99.90;;;;;;5085131;27;20706;-73
2022/07/04 04:17:34;;;;;;;14.25;12.93;;;12.20;99.90;;;;;;5091621;27;20031;-73
2022/07/04 04:20:00;;;;;;;13.45;12.20;;;12.20;99.90;;;;;;5110996;27;20058;-73
2022/07/04 04:22:30;;;;;;;20.95;18.65;;;12.30;99.90;;;;;;5051866;28;20039;-73
2022/07/04 04:24:57;;;;;;;17.98;16.20;;;12.30;99.90;;;;;;5076971;28;20448;-73
2022/07/04 04:27:23;;;;;;;16.73;15.23;;;12.40;99.90;;;;;;5093121;28;20044;-73
2022/07/04 04:29:49;;;;;;;19.42;17.50;;;12.40;99.90;;;;;;5085889;28;20394;-73
2022/07/04 04:32:15;;;;;;;18.10;16.23;;;12.50;99.90;;;;;;5099986;28;20085;-73
2022/07/04 04:34:40;;;;;;;17.35;15.75;;;12.50;99.90;;;;;;5080931;28;20051;-73
2022/07/04 04:37:06;;;;;;;18.05;16.45;;;12.60;99.90;;;;;;5071326;27;20047;-73
2022/07/04 04:39:35;;;;;;;20.03;18.13;;;12.70;99.90;;;;;;5071467;28;20379;-73
2022/07/04 04:42:01;;;;;;;20.60;18.40;;;12.70;99.90;;;;;;5076213;28;20040;-73
2022/07/04 04:44:27;;;;;;;18.63;16.80;;;12.80;99.90;;;;;;5089597;28;20071;-73
2022/07/04 04:46:53;;;;;;;18.00;16.13;;;12.90;99.90;;;;;;5087237;28;20048;-73
2022/07/04 04:49:18;;;;;;;18.60;16.85;;;13.00;99.90;;;;;;5096561;28;20500;-73
2022/07/04 04:51:44;;;;;;;18.48;16.73;;;13.00;99.90;;;;;;5074123;27;20047;-73
2022/07/04 04:54:11;;;;;;;22.58;20.33;;;13.10;99.90;;;;;;5070908;28;20094;-73
2022/07/04 04:56:36;;;;;;;19.73;17.92;;;13.20;99.90;;;;;;5076594;27;20074;-73
2022/07/04 04:59:02;;;;;;;17.73;15.95;;;13.20;99.90;;;;;;5078554;28;20067;-73
2022/07/04 05:01:28;;;;;;;21.20;18.65;;;13.30;99.90;;;;;;5087299;28;20127;-73
2022/07/04 05:03:54;;;;;;;23.02;20.48;;;13.30;99.90;;;;;;5105284;27;20051;-72
2022/07/04 05:06:20;;;;;;;20.73;18.70;;;13.40;99.90;;;;;;5089938;28;20031;-73
2022/07/04 05:08:46;;;;;;;21.55;19.40;;;13.40;99.90;;;;;;5080237;28;20100;-73
2022/07/04 05:11:12;;;;;;;20.42;18.60;;;13.50;99.90;;;;;;5064836;28;20051;-73
2022/07/04 05:13:38;;;;;;;21.00;18.88;;;13.50;99.90;;;;;;5072849;28;20734;-73
2022/07/04 05:16:04;;;;;;;22.50;20.40;;;13.50;99.90;;;;;;5060739;28;20043;-73
2022/07/04 05:18:30;;;;;;;22.20;20.00;;;13.60;99.90;;;;;;5091458;28;20047;-73
2022/07/04 05:20:56;;;;;;;21.60;18.85;;;13.70;99.90;;;;;;5093640;28;20516;-73
2022/07/04 05:23:21;;;;;;;21.90;19.70;;;13.70;99.90;;;;;;5089468;28;20047;-73
2022/07/04 05:25:48;;;;;;;20.08;17.98;;;13.80;99.90;;;;;;5062443;28;20677;-73
2022/07/04 05:28:13;;;;;;;21.33;18.95;;;13.90;99.90;;;;;;5069361;27;20129;-73
2022/07/04 05:30:39;;;;;;;21.35;18.38;;;13.90;99.90;;;;;;5074233;28;20036;-73
2022/07/04 05:33:05;;;;;;;19.60;17.33;;;14.00;99.90;;;;;;5059529;28;20048;-73
2022/07/04 05:35:31;;;;;;;19.00;17.02;;;14.10;99.90;;;;;;5058183;28;20070;-73
2022/07/04 05:37:57;;;;;;;20.17;17.10;;;14.10;99.90;;;;;;5078006;28;20670;-72
2022/07/04 05:40:23;;;;;;;19.25;16.33;;;14.20;99.90;;;;;;5092270;28;20097;-73
2022/07/04 05:42:49;;;;;;;16.65;14.95;;;14.30;99.90;;;;;;5072101;28;20052;-73
2022/07/04 05:45:15;;;;;;;16.80;14.27;;;14.40;99.90;;;;;;5072393;28;20380;-73
2022/07/04 05:47:42;;;;;;;18.48;14.32;;;14.50;99.90;;;;;;5076618;28;20046;-73
2022/07/04 05:50:09;;;;;;;17.65;14.40;;;14.60;99.90;;;;;;5070816;28;20079;-73
2022/07/04 05:52:35;;;;;;;15.77;14.25;;;14.60;99.90;;;;;;5081258;28;20127;-73
2022/07/04 05:55:01;;;;;;;13.80;12.35;;;14.70;99.90;;;;;;5090732;28;20131;-73
2022/07/04 05:57:27;;;;;;;14.93;12.55;;;14.80;99.90;;;;;;5059826;28;20036;-72
2022/07/04 05:59:53;;;;;;;12.55;11.38;;;14.80;99.90;;;;;;5094232;28;20070;-72
2022/07/04 06:02:19;;;;;;;14.75;10.93;;;14.90;99.90;;;;;;5053573;28;20047;-72
2022/07/04 06:04:44;;;;;;;11.30;9.93;;;15.00;99.90;;;;;;5067826;28;20719;-72
2022/07/04 06:07:10;;;;;;;12.43;10.23;;;15.00;99.90;;;;;;5090015;28;20490;-72
2022/07/04 06:09:36;;;;;;;11.13;9.93;;;15.10;99.90;;;;;;5093599;28;20655;-72
2022/07/04 06:12:05;;;;;;;11.73;9.45;;;15.20;99.90;;;;;;5079107;28;20040;-72
2022/07/04 06:14:32;;;;;;;12.77;10.30;;;15.30;99.90;;;;;;5062604;28;20390;-72
2022/07/04 06:17:01;;;;;;;12.90;10.13;;;15.40;99.90;;;;;;5075612;28;20047;-72
2022/07/04 06:19:27;;;;;;;10.52;9.32;;;15.40;99.90;;;;;;5094810;28;20043;-72
2022/07/04 06:21:53;;;;;;;11.73;9.73;;;15.50;99.90;;;;;;5074602;28;20052;-72
2022/07/04 06:24:18;;;;;;;10.77;8.98;;;15.60;99.90;;;;;;5080986;28;20070;-72
2022/07/04 06:26:44;;;;;;;11.32;8.40;;;15.70;99.90;;;;;;5094312;27;20044;-73
2022/07/04 06:29:10;;;;;;;11.57;7.97;;;15.70;99.90;;;;;;5077810;28;20039;-72
2022/07/04 06:31:36;;;;;;;10.93;8.63;;;15.80;99.90;;;;;;5081984;28;20039;-72
2022/07/04 06:36:46;;;;;;;10.88;8.90;;;15.90;99.90;;;;;;5093955;28;20124;-72
2022/07/04 06:39:12;;;;;;;13.25;9.07;;;16.00;99.90;;;;;;5077465;28;20047;-72
2022/07/04 06:41:41;;;;;;;14.82;9.32;;;16.10;99.90;;;;;;5077869;28;20035;-72
2022/07/04 06:44:07;;;;;;;12.48;8.73;;;16.20;99.90;;;;;;5062436;28;20038;-72
2022/07/04 06:46:32;;;;;;;11.57;7.93;;;16.30;99.90;;;;;;5076739;28;20540;-73
2022/07/04 06:48:58;;;;;;;12.35;9.18;;;16.40;99.90;;;;;;5088715;28;20048;-72
2022/07/04 06:51:24;;;;;;;13.02;9.40;;;16.50;99.90;;;;;;5067024;28;20039;-72
2022/07/04 06:53:53;;;;;;;11.90;8.88;;;16.60;99.90;;;;;;5080228;28;20050;-72
2022/07/04 06:56:19;;;;;;;15.27;9.18;;;16.70;99.90;;;;;;5084133;28;20498;-72
2022/07/04 06:58:45;;;;;;;12.15;8.75;;;16.80;99.90;;;;;;5100302;28;20046;-73
2022/07/04 07:01:11;;;;;;;11.60;9.05;;;16.90;99.90;;;;;;5100559;28;20039;-72
2022/07/04 07:03:37;;;;;;;11.52;8.95;;;17.00;99.90;;;;;;5104519;27;20332;-72
2022/07/04 07:06:06;;;;;;;9.82;7.85;;;17.10;99.90;;;;;;5085145;28;20070;-73
2022/07/04 07:08:31;;;;;;;12.93;8.40;;;17.20;99.90;;;;;;5097084;28;20036;-72
2022/07/04 07:11:12;;;;;;;17.95;8.35;;;17.30;99.90;;;;;;5082407;28;20390;-72
2022/07/04 07:13:39;;;;;;;;;;;17.40;99.90;;;;;;5085416;28;20043;-73
2022/07/04 07:16:04;;;;;;;13.13;7.85;;;17.40;99.90;;;;;;5083150;28;20381;-72
2022/07/04 07:18:30;;;;;;;11.68;7.32;;;17.50;99.90;;;;;;5083579;28;20047;-71
2022/07/04 07:20:56;;;;;;;11.43;7.45;;;17.60;99.90;;;;;;5100421;27;20451;-72
2022/07/04 07:23:22;;;;;;;11.98;7.53;;;17.70;99.90;;;;;;5099798;28;20392;-74
2022/07/04 07:25:50;;;;;;;13.20;7.80;;;17.80;99.90;;;;;;5081165;28;20347;-72
2022/07/04 07:28:18;;;;;;;11.73;8.73;;;17.80;99.90;;;;;;5053771;28;20054;-73
2022/07/04 07:30:44;;;;;;;14.55;8.27;;;17.90;99.90;;;;;;5069665;28;20042;-72
2022/07/04 07:33:10;;;;;;;11.88;8.15;;;18.00;99.90;;;;;;5096695;28;20075;-72
2022/07/04 07:35:37;;;;;;;13.05;7.85;;;18.20;99.90;;;;;;5084261;28;21024;-72
2022/07/04 07:38:02;;;;;;;9.73;7.35;;;18.30;99.90;;;;;;5077223;28;20041;-72
2022/07/04 07:40:28;;;;;;;9.18;6.10;;;18.40;99.90;;;;;;5094188;28;20039;-71
2022/07/04 07:42:54;;;;;;;12.15;6.97;;;18.50;99.90;;;;;;5097915;28;20075;-73
2022/07/04 07:45:21;;;;;;;9.63;6.72;;;18.60;99.90;;;;;;5099306;27;20478;-72
2022/07/04 07:47:47;;;;;;;10.75;6.38;;;18.70;99.90;;;;;;5069259;28;20036;-71
2022/07/04 07:50:12;;;;;;;8.95;4.90;;;18.80;99.90;;;;;;5076359;28;21261;-73
2022/07/04 07:52:38;;;;;;;9.65;5.22;;;18.80;99.90;;;;;;5068265;28;20036;-71
2022/07/04 07:55:05;;;;;;;11.20;5.63;;;18.90;99.90;;;;;;5096623;28;20099;-73
2022/07/04 07:57:31;;;;;;;10.35;5.85;;;18.90;99.90;;;;;;5102199;28;20521;-72
2022/07/04 08:00:00;;;;;;;9.48;4.75;;;19.00;99.90;;;;;;5095463;28;20135;-72
2022/07/04 08:05:11;;;;;;;12.00;4.15;;;19.30;99.90;;;;;;5099022;28;20478;-71
2022/07/04 08:07:37;;;;;;;10.52;4.00;;;19.50;99.90;;;;;;5099707;28;20482;-71
2022/07/04 08:10:04;;;;;;;8.90;3.80;;;19.70;99.90;;;;;;5083220;28;20066;-71
2022/07/04 08:12:29;;;;;;;6.38;3.75;;;19.70;99.90;;;;;;5083611;28;20075;-72
2022/07/04 08:14:55;;;;;;;9.80;3.70;;;19.70;99.90;;;;;;5080611;28;20129;-71
2022/07/04 08:17:21;;;;;;;8.90;3.28;;;19.80;99.90;;;;;;5097710;27;20097;-71
2022/07/04 08:19:53;;;;;;;6.95;3.17;;;19.80;99.90;;;;;;5080628;28;20531;-81
2022/07/04 08:22:18;;;;;;;5.55;2.60;;;19.90;99.90;;;;;;5063566;28;20075;-80
2022/07/04 08:25:03;;;;;;;5.97;2.25;;;20.00;99.90;;;;;;5079616;28;20128;-71
2022/07/04 08:27:29;;;;;;;6.50;2.38;;;20.00;99.90;;;;;;5094979;28;20044;-71
2022/07/04 08:29:55;;;;;;;5.50;2.25;;;19.90;99.90;;;;;;5067369;28;20036;-71
2022/07/04 08:32:21;;;;;;;5.93;2.83;;;19.90;99.90;;;;;;5069258;28;20063;-71
2022/07/04 08:34:46;;;;;;;5.72;3.00;;;20.00;99.90;;;;;;5077630;28;20059;-71
2022/07/04 08:37:15;;;;;;;8.13;3.05;;;20.00;99.90;;;;;;5105676;27;20055;-72
2022/07/04 08:39:41;;;;;;;7.65;3.17;;;20.30;99.90;;;;;;5095350;28;20554;-70
2022/07/04 08:42:11;;;;;;;5.30;2.53;;;20.50;99.90;;;;;;5063070;28;20086;-71
2022/07/04 08:44:39;;;;;;;7.07;2.97;;;20.50;99.90;;;;;;5098779;28;20464;-71
2022/07/04 08:47:08;;;;;;;8.93;2.60;;;20.50;99.90;;;;;;5081615;27;20053;-71
2022/07/04 08:49:34;;;;;;;8.77;2.92;;;20.60;99.90;;;;;;5084057;28;20048;-71
2022/07/04 08:52:03;;;;;;;6.43;2.83;;;20.80;99.90;;;;;;5100288;28;20447;-71
2022/07/04 09:00:02;;;;;;;6.78;2.53;;;21.10;99.90;;;;;;5102684;27;20122;-72
2022/07/04 09:02:29;;;;;;;7.18;2.75;;;21.10;99.90;;;;;;5084319;28;20409;-71
2022/07/04 09:04:55;;;;;;;7.57;2.70;;;20.90;99.90;;;;;;5101584;27;20071;-71
2022/07/04 09:07:22;;;;;;;5.90;2.25;;;20.70;99.90;;;;;;5098694;28;20058;-71
2022/07/04 09:09:51;;;;;;;4.50;1.95;;;20.50;99.90;;;;;;5081989;28;20089;-71
2022/07/04 09:12:17;;;;;;;5.00;1.75;;;20.30;99.90;;;;;;5082816;28;20434;-71
2022/07/04 09:14:46;;;;;;;5.07;1.70;;;20.00;99.90;;;;;;5093861;28;20070;-71
2022/07/04 09:17:12;;;;;;;4.75;1.30;;;19.80;99.90;;;;;;5060967;28;20054;-71
2022/07/04 09:19:38;;;;;;;4.43;1.70;;;19.70;99.90;;;;;;5081160;28;20581;-71
2022/07/04 09:22:10;;;;;;;4.65;1.50;;;19.50;99.90;;;;;;5082424;28;20127;-71
2022/07/04 09:24:48;;;;;;;4.13;1.75;;;19.30;99.90;;;;;;5083007;28;20040;-72
2022/07/04 09:27:33;;;;;;;2.85;1.20;;;19.40;99.90;;;;;;5091573;28;20039;-71
2022/07/04 09:29:59;;;;;;;4.38;1.40;;;19.60;99.90;;;;;;5082024;28;20042;-72
2022/07/04 09:32:35;;;;;;;4.00;1.23;;;19.80;99.90;;;;;;5081717;28;20050;-73
2022/07/04 09:35:06;;;;;;;5.57;1.58;;;19.90;99.90;;;;;;5081502;27;20532;-72
2022/07/04 09:37:45;;;;;;;4.97;1.40;;;20.10;99.90;;;;;;5095521;27;20482;-71
2022/07/04 09:43:20;;;;;;;4.20;1.30;;;20.60;99.90;;;;;;5095220;28;20546;-72
2022/07/04 09:45:57;;;;;;;2.95;1.20;;;20.60;99.90;;;;;;5079020;28;20070;-73
2022/07/04 09:48:23;;;;;;;2.10;1.20;;;20.60;99.90;;;;;;5064957;28;20043;-72
2022/07/04 09:50:49;;;;;;;4.43;1.45;;;20.80;99.90;;;;;;5096486;28;20040;-72
2022/07/04 09:53:15;;;;;;;2.90;1.15;;;21.00;99.90;;;;;;5096458;28;20112;-72
2022/07/04 09:55:41;;;;;;;3.28;1.27;;;21.20;99.90;;;;;;5081246;28;20066;-73
2022/07/04 09:58:09;;;;;;;2.85;1.20;;;21.40;99.90;;;;;;5067590;28;20092;-72
2022/07/04 10:00:38;;;;;;;3.00;0.90;;;21.70;99.90;;;;;;5078292;28;20069;-72
2022/07/04 10:03:20;;;;;;;3.87;1.10;;;21.80;99.90;;;;;;5084326;28;20470;-72
2022/07/04 10:06:13;;;;;;;4.05;0.85;;;21.70;99.90;;;;;;5081122;28;20611;-73
2022/07/04 10:08:43;;;;;;;2.53;0.88;;;21.70;99.90;;;;;;5080699;28;20402;-72
2022/07/04 10:11:11;;;;;;;2.25;0.90;;;21.80;99.90;;;;;;5091371;28;20417;-72
2022/07/04 10:13:38;;;;;;;3.47;1.10;;;21.90;99.90;;;;;;5094392;28;20702;-72
2022/07/04 10:16:04;;;;;;;4.07;1.17;;;22.00;99.90;;;;;;5076108;28;20050;-73
2022/07/04 10:18:30;;;;;;;2.25;0.90;;;22.20;99.90;;;;;;5069833;28;20059;-71
2022/07/04 10:20:59;;;;;;;3.13;1.02;;;22.30;99.90;;;;;;5065300;28;21218;-72
2022/07/04 10:23:31;;;;;;;2.67;1.05;;;22.30;99.70;;;;;;5070099;28;20051;-73
2022/07/04 10:26:00;;;;;;;3.95;1.50;;;22.20;99.50;;;;;;5087889;28;20500;-72
2022/07/04 10:28:26;;;;;;;6.20;1.40;;;22.10;99.90;;;;;;5090018;28;20048;-73
2022/07/04 10:30:55;;;;;;;3.50;1.38;;;22.00;99.90;;;;;;5055741;28;20446;-72
2022/07/04 10:33:26;;;;;;;3.67;1.40;;;21.90;99.90;;;;;;5102982;27;20055;-72
2022/07/04 10:35:56;;;;;;;3.30;1.20;;;21.70;99.90;;;;;;5094044;28;20059;-72
2022/07/04 10:38:22;;;;;;;4.13;1.38;;;21.60;99.90;;;;;;5090728;28;20448;-72
2022/07/04 10:40:56;;;;;;;3.80;1.40;;;21.40;99.90;;;;;;5075585;28;20040;-73
2022/07/04 10:43:30;;;;;;;3.42;1.40;;;21.30;99.90;;;;;;5088335;28;20040;-73
2022/07/04 10:46:16;;;;;;;2.88;1.40;;;21.10;99.90;;;;;;5107847;27;20054;-73
2022/07/04 10:49:03;;;;;;;4.53;1.48;;;21.00;99.90;;;;;;5072322;28;20056;-73
2022/07/04 10:51:45;;;;;;;4.05;1.83;;;20.90;99.90;;;;;;5092933;28;20606;-72
2022/07/04 10:54:34;;;;;;;6.40;1.60;;;21.00;99.90;;;;;;5081157;28;20533;-72
2022/07/04 10:57:14;;;;;;;5.95;1.90;;;21.20;99.90;;;;;;5078492;28;20082;-73
2022/07/04 10:59:42;;;;;;;4.18;1.63;;;21.50;99.90;;;;;;5104881;27;20051;-72
2022/07/04 11:02:08;;;;;;;5.00;1.75;;;21.80;99.90;;;;;;5084847;28;20077;-73
2022/07/04 11:04:53;;;;;;;3.83;1.42;;;21.90;99.90;;;;;;5089150;28;20119;-73
2022/07/04 11:07:24;;;;;;;3.45;1.35;;;22.10;99.90;;;;;;5107923;27;20078;-72
2022/07/04 11:13:07;;;;;;;3.97;1.63;;;22.50;99.90;;;;;;5095603;28;20070;-73
2022/07/04 11:15:33;;;;;;;3.35;1.45;;;22.70;99.90;;;;;;5092453;28;20402;-72
2022/07/04 11:18:13;;;;;;;2.92;1.20;;;22.70;99.90;;;;;;5109031;27;20058;-72
2022/07/04 11:20:43;;;;;;;;;;;22.60;99.90;;;;;;5073989;28;20052;-72
2022/07/04 11:23:13;;;;;;;4.97;1.70;;;22.60;99.90;;;;;;5111914;27;20623;-73
2022/07/04 11:25:42;;;;;;;3.00;1.30;;;22.40;99.90;;;;;;5107091;27;20070;-73
2022/07/04 11:28:28;;;;;;;2.05;1.35;;;22.10;99.90;;;;;;5101674;28;20306;-72
2022/07/04 11:30:56;;;;;;;2.95;1.02;;;22.00;99.90;;;;;;5094369;28;20051;-73
2022/07/04 11:33:28;;;;;;;2.85;1.30;;;22.20;99.90;;;;;;5098915;28;20048;-73
2022/07/04 11:36:20;;;;;;;4.85;1.27;;;22.50;99.90;;;;;;5099716;28;20051;-72
2022/07/04 11:38:56;;;;;;;3.72;1.20;;;22.80;99.90;;;;;;5068250;28;20359;-73
2022/07/04 11:47:12;;;;;;;4.03;1.23;;;23.40;96.60;;;;;;5094471;28;20055;-73
2022/07/04 11:49:58;;;;;;;3.50;1.27;;;23.20;94.60;;;;;;5100101;28;20043;-73
2022/07/04 11:52:26;;;;;;;3.95;1.15;;;22.80;95.70;;;;;;5080003;28;20042;-73
2022/07/04 11:54:53;;;;;;;4.18;1.13;;;22.70;98.30;;;;;;5097448;27;20047;-73
2022/07/04 11:57:23;;;;;;;5.53;1.30;;;22.80;98.40;;;;;;5097189;28;20108;-72
2022/07/04 11:59:56;;;;;;;2.22;0.90;;;23.00;99.30;;;;;;5076319;28;20076;-73
2022/07/04 12:02:22;;;;;;;3.55;1.13;;;23.10;98.20;;;;;;5090130;28;20048;-74
2022/07/04 12:04:48;;;;;;;26.17;5.47;;;23.20;99.70;;;;;;5092733;28;20398;-73
2022/07/04 12:07:16;;;;;;;4.30;1.70;;;23.30;98.80;;;;;;5077158;28;20058;-73
2022/07/04 12:09:44;;;;;;;3.80;1.08;;;23.50;98.30;;;;;;5114464;27;20321;-73
2022/07/04 12:12:14;;;;;;;10.25;3.63;;;23.50;98.20;;;;;;5086045;28;20051;-73
2022/07/04 12:14:56;;;;;;;2.28;1.00;;;23.50;99.20;;;;;;5090974;28;20048;-73
2022/07/04 12:17:22;;;;;;;2.28;0.77;;;23.60;98.40;;;;;;5075258;28;20064;-74
2022/07/04 12:19:56;;;;;;;2.53;1.00;;;23.30;96.70;;;;;;5066168;28;20124;-73
2022/07/04 12:22:26;;;;;;;4.07;1.17;;;23.20;97.80;;;;;;5091730;28;20402;-72
2022/07/04 12:24:52;;;;;;;;;;;23.20;98.70;;;;;;5112836;27;20047;-72
2022/07/04 12:27:19;;;;;;;3.47;0.80;;;23.40;94.90;;;;;;5089836;28;19920;-73
2022/07/04 12:29:53;;;;;;;1.85;0.60;;;23.60;93.50;;;;;;5081323;28;20054;-73
2022/07/04 12:32:19;;;;;;;4.25;1.00;;;23.50;90.40;;;;;;5097237;28;20051;-73
2022/07/04 12:34:45;;;;;;;3.90;0.70;;;23.20;93.90;;;;;;5100134;28;20132;-73
2022/07/04 12:37:19;;;;;;;2.67;1.00;;;23.00;94.60;;;;;;5084200;28;20047;-74
2022/07/04 12:39:45;;;;;;;2.05;0.75;;;23.00;96.90;;;;;;5070479;28;20044;-73
2022/07/04 12:42:15;;;;;;;2.15;0.98;;;23.00;97.10;;;;;;5071976;28;20044;-73
2022/07/04 12:44:43;;;;;;;3.92;0.85;;;23.00;94.50;;;;;;5097971;28;20138;-73
2022/07/04 12:47:11;;;;;;;6.07;1.45;;;23.00;97.20;;;;;;5094345;28;20051;-73
2022/07/04 12:49:37;;;;;;;2.15;0.80;;;23.10;95.70;;;;;;5081202;28;20443;-74
2022/07/04 12:52:05;;;;;;;3.17;0.88;;;23.00;94.00;;;;;;5075160;28;20130;-73
2022/07/04 12:54:31;;;;;;;2.53;0.80;;;23.10;96.60;;;;;;5074544;28;20055;-73
2022/07/04 12:57:06;;;;;;;1.63;0.60;;;23.30;96.40;;;;;;5093142;28;20052;-73
2022/07/04 12:59:31;;;;;;;2.80;0.57;;;23.60;90.00;;;;;;5103447;28;20122;-74
2022/07/04 13:01:57;;;;;;;2.22;0.70;;;23.60;84.20;;;;;;5065759;28;20128;-73
2022/07/04 13:04:23;;;;;;;3.40;0.85;;;23.60;87.90;;;;;;5089182;28;20380;-73
2022/07/04 13:06:52;;;;;;;1.58;0.77;;;23.70;90.20;;;;;;5057881;28;20047;-73
2022/07/04 13:09:21;;;;;;;1.92;0.63;;;23.70;88.00;;;;;;5095034;28;20407;-74
2022/07/04 13:14:34;;;;;;;1.70;0.80;;;23.50;89.00;;;;;;5070566;28;20126;-74